Aérodrome :
LOGIN :

S'inscrire | Disclaimer

   EN    FR    IT 

 










Légende :    VFR   VFR Marginal   IFR   IFR Intensif   IFR Très Intensif
Visi : 
Plafond : 
>= 8 km
>= 3000ft
5 à 8 km
1000 à 3000 ft
1500m à 5 km
500 à 1000 ft
800 à 1500m
200 à 500 ft
< 800m
< 200 ft
Symboles :   Orages  Brouillard  Fortes neiges  Fortes précipitations  Vent > 20 kt
SIGMETs :   Divers  Orages  Givrage  Turbulence  Onde Orograph.  Cendres Volcan.







- Altitude de l'aérodrome : 776 ft
- Code IATA : RMS


ETAR - Ramstein Air Base

DERNIER METAR :
  • 191356Z AUTO 21009KT 9999 CLR 29/20 A3009 RMK AO2 SLP184 T02850202 $

METARs EXPIRÉS :
  • 191256Z AUTO 24009KT 9999 CLR 28/21 A3010 RMK AO2 SLP188 T02820207 $
  • 191156Z AUTO 24008KT 9999 CLR 27/21 A3011 RMK AO2 SLP191 T02740214 10274 20118 58007 $

TAF TAF ETAR
Valide du 19 à 10h jusqu'au 20 à 16h UTC


191013Z 1910/2016 VRB06KT 9999 FEW060 FEW200 QNH3009INS
BECMG 1911/1912 22009KT 9999 FEW040 SCT250 QNH3006INS
BECMG 1917/1918 VRB06KT 9999 BKN200 QNH3008INS
BECMG 2007/2008 22009KT 9999 FEW050 QNH2997INS TX28/1915Z TN11/2005Z
Pas de NOTAMs connus pour ce terrain.



MET'MAP, la Météo Aéronautique d'un coup d'oeil ! - Copyright ORBIFLY Décembre 2007 - Disclaimer

ORBIFLY MET'MAP TEAM :

Programmation & Développement : Alexandra Zaïnal
Conception & Développement : Baudouin d'Aumeries
Co-Programmation & Développement : Marc-Olivier Méhu
Soutien technique & logistique : Manuel Goepfert

Contact : metmap@orbifly.com




SOURCES & CREDITS :

   NOAA